createdAt,value
2017-03-11T00:00:00.148Z,1.54
2017-03-11T00:01:00.682Z,1.50
2017-03-11T00:02:01.215Z,1.47
2017-03-11T00:03:01.752Z,1.45
2017-03-11T00:04:02.425Z,1.50
2017-03-11T00:05:02.809Z,1.52
2017-03-11T00:06:03.344Z,1.58
2017-03-11T00:07:03.872Z,1.61
2017-03-11T00:08:04.410Z,1.64
2017-03-11T00:09:04.940Z,1.63
2017-03-11T00:10:05.476Z,1.63
2017-03-11T00:11:06.014Z,1.61
2017-03-11T00:12:06.539Z,1.63
2017-03-11T00:13:07.067Z,1.61
2017-03-11T00:14:07.605Z,1.63
2017-03-11T00:15:08.129Z,1.61
2017-03-11T00:16:08.659Z,1.64
2017-03-11T00:17:09.188Z,1.67
2017-03-11T00:18:09.724Z,1.65
2017-03-11T00:19:10.253Z,1.63
2017-03-11T00:20:10.787Z,1.57
2017-03-11T00:21:11.319Z,1.54
2017-03-11T00:22:11.853Z,1.49
2017-03-11T00:23:12.384Z,1.45
2017-03-11T00:24:12.919Z,1.42
2017-03-11T00:25:13.451Z,1.39
2017-03-11T00:26:13.986Z,1.35
2017-03-11T00:27:14.523Z,1.28
2017-03-11T00:28:15.058Z,1.23
2017-03-11T00:29:15.598Z,1.23
2017-03-11T00:30:16.126Z,1.25
2017-03-11T00:31:16.814Z,1.25
2017-03-11T00:32:17.198Z,1.27
2017-03-11T00:33:17.733Z,1.31
2017-03-11T00:34:18.265Z,1.38
2017-03-11T00:35:18.804Z,1.39
2017-03-11T00:36:19.484Z,1.39
2017-03-11T00:37:19.869Z,1.39
2017-03-11T00:38:20.399Z,1.36
2017-03-11T00:39:21.081Z,1.36
2017-03-11T00:40:21.465Z,1.36
2017-03-11T00:41:21.996Z,1.35
2017-03-11T00:42:22.530Z,1.39
2017-03-11T00:43:23.204Z,1.40
2017-03-11T00:44:23.732Z,1.45
2017-03-11T00:45:24.114Z,1.46
2017-03-11T00:46:24.649Z,1.49
2017-03-11T00:47:25.185Z,1.56
2017-03-11T00:48:25.710Z,1.63
2017-03-11T00:49:26.243Z,1.65
2017-03-11T00:50:26.772Z,1.67
2017-03-11T00:51:27.309Z,1.67
2017-03-11T00:52:27.841Z,1.65
2017-03-11T00:53:28.372Z,1.65
2017-03-11T00:54:28.905Z,1.68
2017-03-11T00:55:29.437Z,1.67
2017-03-11T00:56:29.971Z,1.69
2017-03-11T00:57:30.502Z,1.71
2017-03-11T00:58:31.034Z,1.72
2017-03-11T00:59:31.567Z,1.76
2017-03-11T01:00:32.100Z,1.76
2017-03-11T01:01:32.625Z,1.79
2017-03-11T01:02:33.163Z,1.83
2017-03-11T01:03:35.488Z,1.86
2017-03-11T01:04:34.221Z,1.87
2017-03-11T01:05:34.752Z,1.86
2017-03-11T01:06:35.288Z,1.87
2017-03-11T01:07:35.818Z,1.86
2017-03-11T01:08:36.510Z,1.86
2017-03-11T01:09:36.885Z,1.84
2017-03-11T01:10:37.423Z,1.83
2017-03-11T01:11:37.956Z,1.79
2017-03-11T01:12:38.494Z,1.78
2017-03-11T01:13:39.026Z,1.75
2017-03-11T01:14:39.569Z,1.74
2017-03-11T01:15:40.094Z,1.69
2017-03-11T01:16:40.633Z,1.69
2017-03-11T01:17:41.163Z,1.68
2017-03-11T01:18:41.696Z,1.69
2017-03-11T01:19:42.230Z,1.71
2017-03-11T01:20:42.761Z,1.69
2017-03-11T01:21:43.294Z,1.69
2017-03-11T01:22:43.825Z,1.72
2017-03-11T01:23:44.363Z,1.74
2017-03-11T01:24:44.894Z,1.78
2017-03-11T01:25:45.421Z,1.76
2017-03-11T01:26:45.953Z,1.75
2017-03-11T01:27:46.486Z,1.74
2017-03-11T01:28:47.030Z,1.71
2017-03-11T01:29:47.552Z,1.69
2017-03-11T01:30:48.086Z,1.67
2017-03-11T01:31:48.620Z,1.65
2017-03-11T01:32:49.147Z,1.65
2017-03-11T01:33:49.675Z,1.63
2017-03-11T01:34:50.210Z,1.58
2017-03-11T01:35:50.742Z,1.56
2017-03-11T01:36:51.275Z,1.57
2017-03-11T01:37:51.810Z,1.57
2017-03-11T01:38:52.342Z,1.58
2017-03-11T01:39:52.872Z,1.58
2017-03-11T01:40:53.405Z,1.61
2017-03-11T01:41:54.085Z,1.63
2017-03-11T01:42:54.469Z,1.61
2017-03-11T01:43:55.002Z,1.60
2017-03-11T01:44:55.530Z,1.63
2017-03-11T01:45:56.082Z,1.61
2017-03-11T01:46:56.598Z,1.58
2017-03-11T01:47:57.135Z,1.58
2017-03-11T01:48:57.662Z,1.60
2017-03-11T01:49:58.199Z,1.60
2017-03-11T01:50:58.739Z,1.58
2017-03-11T01:51:59.267Z,1.64
2017-03-11T01:52:59.807Z,1.63
2017-03-11T01:54:00.347Z,1.64
2017-03-11T01:55:00.875Z,1.65
2017-03-11T01:56:01.555Z,1.68
2017-03-11T01:57:02.081Z,1.71
2017-03-11T01:58:02.473Z,1.71
2017-03-11T01:59:03.003Z,1.69
2017-03-11T02:00:03.530Z,1.71
2017-03-11T02:01:04.066Z,1.72
2017-03-11T02:02:04.599Z,1.74
2017-03-11T02:03:05.138Z,1.72
2017-03-11T02:04:05.667Z,1.72
2017-03-11T02:05:06.200Z,1.75
2017-03-11T02:06:06.732Z,1.79
2017-03-11T02:07:07.267Z,1.80
2017-03-11T02:08:07.802Z,1.84
2017-03-11T02:09:08.334Z,1.87
2017-03-11T02:10:08.858Z,1.86
2017-03-11T02:11:09.393Z,1.87
2017-03-11T02:12:09.927Z,1.88
2017-03-11T02:13:10.455Z,1.86
2017-03-11T02:14:10.988Z,1.87
2017-03-11T02:15:11.522Z,1.87
2017-03-11T02:16:12.065Z,1.88
2017-03-11T02:17:12.588Z,1.87
2017-03-11T02:18:13.121Z,1.87
2017-03-11T02:19:13.653Z,1.86
2017-03-11T02:20:14.184Z,1.86
2017-03-11T02:21:14.716Z,1.84
2017-03-11T02:22:15.244Z,1.84
2017-03-11T02:23:15.772Z,1.87
2017-03-11T02:24:16.307Z,1.88
2017-03-11T02:25:16.841Z,1.91
2017-03-11T02:26:17.520Z,1.94
2017-03-11T02:27:17.905Z,1.94
2017-03-11T02:28:18.583Z,1.97
2017-03-11T02:29:18.967Z,1.97
2017-03-11T02:30:19.501Z,1.97
2017-03-11T02:31:20.036Z,1.97
2017-03-11T02:32:20.574Z,1.97
2017-03-11T02:33:21.111Z,1.95
2017-03-11T02:34:21.647Z,1.95
2017-03-11T02:35:22.185Z,1.92
2017-03-11T02:36:22.708Z,1.92
2017-03-11T02:37:23.245Z,1.91
2017-03-11T02:38:23.770Z,1.90
2017-03-11T02:39:24.305Z,1.88
2017-03-11T02:40:24.836Z,1.88
2017-03-11T02:41:25.370Z,1.88
2017-03-11T02:42:25.916Z,1.90
2017-03-11T02:43:26.432Z,1.91
2017-03-11T02:44:26.964Z,1.91
2017-03-11T02:45:27.501Z,1.91
2017-03-11T02:46:28.034Z,1.91
2017-03-11T02:47:28.562Z,1.90
2017-03-11T02:48:29.096Z,1.90
2017-03-11T02:49:29.629Z,1.88
2017-03-11T02:50:30.156Z,1.88
2017-03-11T02:51:30.697Z,1.86
2017-03-11T02:52:31.222Z,1.84
2017-03-11T02:53:31.757Z,1.83
2017-03-11T02:54:32.287Z,1.79
2017-03-11T02:55:32.821Z,1.78
2017-03-11T02:56:33.391Z,1.76
2017-03-11T02:57:33.885Z,1.76
2017-03-11T02:58:34.414Z,1.75
2017-03-11T02:59:34.949Z,1.74
2017-03-11T03:00:35.479Z,1.72
2017-03-11T03:01:36.012Z,1.72
2017-03-11T03:02:36.544Z,1.75
2017-03-11T03:03:37.081Z,1.76
2017-03-11T03:04:37.607Z,1.79
2017-03-11T03:05:38.146Z,1.80
2017-03-11T03:06:38.676Z,1.76
2017-03-11T03:07:39.211Z,1.75
2017-03-11T03:08:39.747Z,1.72
2017-03-11T03:09:40.276Z,1.74
2017-03-11T03:10:40.805Z,1.74
2017-03-11T03:11:41.341Z,1.71
2017-03-11T03:12:41.875Z,1.71
2017-03-11T03:13:42.414Z,1.74
2017-03-11T03:14:42.946Z,1.72
2017-03-11T03:15:43.480Z,1.69
2017-03-11T03:16:44.010Z,1.67
2017-03-11T03:17:44.696Z,1.63
2017-03-11T03:18:45.079Z,1.61
2017-03-11T03:19:45.618Z,1.61
2017-03-11T03:20:46.155Z,1.64
2017-03-11T03:21:46.680Z,1.64
2017-03-11T03:22:47.213Z,1.68
2017-03-11T03:23:47.744Z,1.72
2017-03-11T03:24:48.424Z,1.75
2017-03-11T03:25:48.807Z,1.76
2017-03-11T03:26:49.337Z,1.78
2017-03-11T03:27:49.868Z,1.76
2017-03-11T03:28:50.412Z,1.74
2017-03-11T03:29:50.937Z,1.75
2017-03-11T03:30:51.475Z,1.75
2017-03-11T03:31:52.001Z,1.74
2017-03-11T03:32:52.694Z,1.75
2017-03-11T03:33:53.065Z,1.74
2017-03-11T03:34:53.604Z,1.75
2017-03-11T03:35:54.128Z,1.76
2017-03-11T03:36:54.666Z,1.75
2017-03-11T03:37:55.196Z,1.75
2017-03-11T03:38:55.730Z,1.76
2017-03-11T03:39:56.263Z,1.76
2017-03-11T03:40:56.791Z,1.76
2017-03-11T03:41:57.325Z,1.76
2017-03-11T03:42:57.853Z,1.75
2017-03-11T03:43:58.390Z,1.74
2017-03-11T03:44:58.932Z,1.75
2017-03-11T03:45:59.452Z,1.75
2017-03-11T03:46:59.989Z,1.76
2017-03-11T03:48:00.521Z,1.75
2017-03-11T03:49:01.051Z,1.72
2017-03-11T03:50:01.583Z,1.72
2017-03-11T03:51:02.125Z,1.69
2017-03-11T03:52:02.642Z,1.67
2017-03-11T03:53:03.208Z,1.64
2017-03-11T03:54:03.722Z,1.63
2017-03-11T03:55:04.404Z,1.61
2017-03-11T03:56:04.798Z,1.57
2017-03-11T03:57:05.324Z,1.54
2017-03-11T03:58:05.866Z,1.50
2017-03-11T03:59:06.407Z,1.47
2017-03-11T04:00:06.931Z,1.45
2017-03-11T04:01:07.463Z,1.43
2017-03-11T04:02:08.001Z,1.42
2017-03-11T04:03:08.527Z,1.42
2017-03-11T04:04:09.058Z,1.39
2017-03-11T04:05:09.585Z,1.36
2017-03-11T04:06:10.121Z,1.32
2017-03-11T04:07:10.801Z,1.32
2017-03-11T04:08:11.186Z,1.28
2017-03-11T04:09:11.716Z,1.28
2017-03-11T04:10:12.253Z,1.27
2017-03-11T04:11:12.783Z,1.25
2017-03-11T04:12:13.312Z,1.23
2017-03-11T04:13:13.844Z,1.21
2017-03-11T04:14:14.379Z,1.24
2017-03-11T04:15:14.913Z,1.24
2017-03-11T04:16:15.465Z,1.25
2017-03-11T04:17:15.971Z,1.25
2017-03-11T04:18:16.510Z,1.24
2017-03-11T04:19:17.039Z,1.24
2017-03-11T04:20:17.570Z,1.21
2017-03-11T04:21:18.106Z,1.21
2017-03-11T04:22:18.632Z,1.20
2017-03-11T04:23:19.168Z,1.17
2017-03-11T04:24:19.697Z,1.18
2017-03-11T04:25:20.235Z,1.17
2017-03-11T04:26:20.765Z,1.18
2017-03-11T04:27:21.292Z,1.20
2017-03-11T04:28:21.826Z,1.27
2017-03-11T04:29:22.356Z,1.31
2017-03-11T04:30:22.892Z,1.35
2017-03-11T04:31:23.425Z,1.38
2017-03-11T04:32:23.953Z,1.36
2017-03-11T04:33:24.484Z,1.36
2017-03-11T04:34:25.202Z,1.39
2017-03-11T04:35:25.560Z,1.39
2017-03-11T04:36:26.098Z,1.38
2017-03-11T04:37:26.634Z,1.36
2017-03-11T04:38:27.169Z,1.34
2017-03-11T04:39:27.703Z,1.32
2017-03-11T04:40:28.237Z,1.29
2017-03-11T04:41:28.770Z,1.27
2017-03-11T04:42:29.310Z,1.24
2017-03-11T04:43:29.839Z,1.20
2017-03-11T04:44:30.371Z,1.17
2017-03-11T04:45:30.900Z,1.12
2017-03-11T04:46:31.437Z,1.08
2017-03-11T04:47:31.973Z,1.05
2017-03-11T04:48:32.500Z,1.01
2017-03-11T04:49:33.038Z,0.98
2017-03-11T04:50:33.571Z,0.95
2017-03-11T04:51:34.252Z,0.95
2017-03-11T04:52:34.636Z,0.91
2017-03-11T04:53:35.165Z,0.88
2017-03-11T04:54:35.699Z,0.85
2017-03-11T04:55:36.229Z,0.82
2017-03-11T04:56:36.769Z,0.81
2017-03-11T04:57:37.297Z,0.79
2017-03-11T04:58:37.829Z,0.76
2017-03-11T04:59:38.359Z,0.74
2017-03-11T05:00:38.896Z,0.72
2017-03-11T05:01:39.430Z,0.71
2017-03-11T05:02:39.960Z,0.74
2017-03-11T05:03:40.639Z,0.76
2017-03-11T05:04:41.024Z,0.75
2017-03-11T05:05:41.558Z,0.79
2017-03-11T05:06:42.086Z,0.81
2017-03-11T05:07:42.640Z,0.82
2017-03-11T05:08:43.146Z,0.86
2017-03-11T05:09:43.682Z,0.88
2017-03-11T05:10:44.211Z,0.91
2017-03-11T05:11:44.743Z,0.94
2017-03-11T05:12:45.274Z,0.98
2017-03-11T05:13:45.805Z,1.00
2017-03-11T05:14:46.340Z,1.00
2017-03-11T05:15:46.871Z,1.02
2017-03-11T05:16:47.415Z,1.04
2017-03-11T05:17:47.955Z,1.02
2017-03-11T05:18:48.488Z,1.06
2017-03-11T05:19:49.019Z,1.05
2017-03-11T05:20:49.557Z,1.08
2017-03-11T05:21:50.262Z,1.20
2017-03-11T05:22:50.628Z,1.27
2017-03-11T05:23:51.156Z,1.29
2017-03-11T05:24:51.836Z,1.36
2017-03-11T05:25:52.221Z,1.38
2017-03-11T05:26:52.762Z,1.39
2017-03-11T05:27:53.292Z,1.42
2017-03-11T05:28:53.823Z,1.43
2017-03-11T05:29:54.355Z,1.46
2017-03-11T05:30:55.033Z,1.49
2017-03-11T05:31:55.417Z,1.47
2017-03-11T05:32:55.954Z,1.47
2017-03-11T05:33:56.492Z,1.50
2017-03-11T05:34:57.020Z,1.52
2017-03-11T05:35:57.546Z,1.52
2017-03-11T05:36:58.083Z,1.49
2017-03-11T05:37:58.612Z,1.47
2017-03-11T05:38:59.296Z,1.46
2017-03-11T05:39:59.680Z,1.43
2017-03-11T05:41:00.216Z,1.42
2017-03-11T05:42:00.763Z,1.42
2017-03-11T05:43:01.281Z,1.40
2017-03-11T05:44:01.815Z,1.38
2017-03-11T05:45:02.349Z,1.38
2017-03-11T05:46:02.886Z,1.35
2017-03-11T05:47:03.418Z,1.32
2017-03-11T05:48:03.947Z,1.32
2017-03-11T05:49:05.099Z,1.29
2017-03-11T05:50:05.153Z,1.28
2017-03-11T05:51:05.545Z,1.25
2017-03-11T05:52:06.074Z,1.24
2017-03-11T05:53:06.610Z,1.18
2017-03-11T05:54:07.137Z,1.13
2017-03-11T05:55:07.676Z,1.09
2017-03-11T05:56:08.198Z,1.08
2017-03-11T05:57:08.735Z,1.05
2017-03-11T05:58:09.268Z,1.04
2017-03-11T05:59:09.806Z,1.02
2017-03-11T06:00:10.343Z,1.01
2017-03-11T06:01:10.879Z,1.01
2017-03-11T06:02:11.410Z,1.00
2017-03-11T06:03:11.947Z,0.98
2017-03-11T06:04:12.473Z,0.98
2017-03-11T06:05:13.005Z,0.97
2017-03-11T06:06:13.539Z,0.95
2017-03-11T06:07:14.067Z,0.95
2017-03-11T06:08:14.595Z,0.94
2017-03-11T06:09:15.131Z,0.93
2017-03-11T06:10:15.662Z,0.91
2017-03-11T06:11:16.209Z,0.88
2017-03-11T06:12:16.725Z,0.83
2017-03-11T06:13:17.257Z,0.81
2017-03-11T06:14:17.796Z,0.78
2017-03-11T06:15:18.325Z,0.74
2017-03-11T06:16:18.856Z,0.67
2017-03-11T06:17:19.389Z,0.65
2017-03-11T06:18:19.923Z,0.64
2017-03-11T06:19:20.451Z,0.65
2017-03-11T06:20:20.986Z,0.67
2017-03-11T06:21:21.517Z,0.70
2017-03-11T06:22:22.055Z,0.71
2017-03-11T06:23:22.584Z,0.71
2017-03-11T06:24:23.124Z,0.71
2017-03-11T06:25:23.655Z,0.74
2017-03-11T06:26:24.188Z,0.75
2017-03-11T06:27:24.712Z,0.75
2017-03-11T06:28:25.241Z,0.76
2017-03-11T06:29:25.774Z,0.78
2017-03-11T06:30:26.309Z,0.78
2017-03-11T06:31:26.842Z,0.76
2017-03-11T06:32:27.369Z,0.76
2017-03-11T06:33:27.902Z,0.72
2017-03-11T06:34:28.435Z,0.71
2017-03-11T06:35:28.972Z,0.74
2017-03-11T06:36:29.499Z,0.81
2017-03-11T06:37:30.031Z,0.83
2017-03-11T06:38:30.559Z,0.81
2017-03-11T06:39:31.098Z,0.83
2017-03-11T06:40:31.631Z,0.88
2017-03-11T06:41:32.169Z,0.91
2017-03-11T06:42:32.702Z,0.97
2017-03-11T06:43:33.237Z,1.00
2017-03-11T06:44:33.774Z,1.02
2017-03-11T06:45:34.305Z,1.08
2017-03-11T06:46:34.832Z,1.11
2017-03-11T06:47:35.367Z,1.15
2017-03-11T06:48:35.897Z,1.21
2017-03-11T06:49:36.433Z,1.27
2017-03-11T06:50:36.964Z,1.34
2017-03-11T06:51:37.498Z,1.36
2017-03-11T06:52:38.028Z,1.42
2017-03-11T06:53:38.559Z,1.46
2017-03-11T06:54:39.242Z,1.53
2017-03-11T06:55:39.625Z,1.56
2017-03-11T06:56:40.160Z,1.61
2017-03-11T06:57:40.698Z,1.65
2017-03-11T06:58:41.225Z,1.69
2017-03-11T06:59:41.755Z,1.75
2017-03-11T07:00:42.286Z,1.79
2017-03-11T07:01:42.817Z,1.86
2017-03-11T07:02:43.350Z,1.90
2017-03-11T07:03:43.882Z,1.95
2017-03-11T07:04:44.412Z,1.99
2017-03-11T07:05:44.973Z,2.02
2017-03-11T07:06:45.473Z,2.06
2017-03-11T07:07:46.012Z,2.10
2017-03-11T07:08:46.542Z,2.16
2017-03-11T07:09:47.075Z,2.17
2017-03-11T07:10:47.599Z,2.19
2017-03-11T07:11:48.139Z,2.23
2017-03-11T07:12:48.671Z,2.26
2017-03-11T07:13:49.203Z,2.28
2017-03-11T07:14:49.739Z,2.36
2017-03-11T07:15:50.268Z,2.39
2017-03-11T07:16:50.797Z,2.44
2017-03-11T07:17:51.336Z,2.50
2017-03-11T07:18:51.865Z,2.55
2017-03-11T07:19:52.405Z,2.62
2017-03-11T07:20:53.085Z,2.66
2017-03-11T07:21:53.472Z,2.72
2017-03-11T07:22:54.013Z,2.76
2017-03-11T07:23:54.692Z,2.79
2017-03-11T07:24:55.084Z,2.84
2017-03-11T07:25:55.625Z,2.91
2017-03-11T07:26:56.149Z,2.99
2017-03-11T07:27:56.680Z,3.06
2017-03-11T07:28:57.364Z,3.16
2017-03-11T07:29:57.742Z,3.24
2017-03-11T07:30:58.271Z,3.32
2017-03-11T07:31:58.807Z,3.37
2017-03-11T07:32:59.485Z,3.43
2017-03-11T07:33:59.869Z,3.42
2017-03-11T07:35:00.399Z,3.43
2017-03-11T07:36:00.928Z,3.46
2017-03-11T07:37:01.462Z,3.47
2017-03-11T07:38:01.996Z,3.51
2017-03-11T07:39:02.526Z,3.54
2017-03-11T07:40:03.065Z,3.57
2017-03-11T07:41:03.745Z,3.61
2017-03-11T07:42:04.127Z,3.64
2017-03-11T07:43:04.660Z,3.66
2017-03-11T07:44:05.192Z,3.72
2017-03-11T07:45:05.736Z,3.77
2017-03-11T07:46:06.258Z,3.77
2017-03-11T07:47:06.793Z,3.76
2017-03-11T07:48:07.321Z,3.80
2017-03-11T07:49:07.851Z,3.87
2017-03-11T07:50:08.382Z,3.92
2017-03-11T07:51:08.920Z,3.96
2017-03-11T07:52:09.450Z,4.00
2017-03-11T07:53:09.982Z,4.06
2017-03-11T07:54:10.511Z,4.12
2017-03-11T07:55:11.053Z,4.15
2017-03-11T07:56:11.571Z,4.18
2017-03-11T07:57:12.104Z,4.21
2017-03-11T07:58:12.638Z,4.19
2017-03-11T07:59:13.164Z,4.24
2017-03-11T08:00:13.701Z,4.30
2017-03-11T08:01:14.244Z,4.29
2017-03-11T08:02:14.916Z,4.30
2017-03-11T08:03:15.306Z,4.32
2017-03-11T08:04:15.843Z,4.36
2017-03-11T08:05:16.378Z,4.36
2017-03-11T08:06:16.914Z,4.39
2017-03-11T08:07:17.447Z,4.48
2017-03-11T08:08:17.982Z,4.57
2017-03-11T08:09:18.512Z,4.62
2017-03-11T08:10:19.047Z,4.71
2017-03-11T08:11:19.578Z,4.78
2017-03-11T08:12:20.115Z,4.77
2017-03-11T08:13:20.640Z,4.77
2017-03-11T08:14:21.177Z,4.73
2017-03-11T08:15:21.709Z,4.69
2017-03-11T08:16:22.239Z,4.70
2017-03-11T08:17:22.767Z,4.74
2017-03-11T08:18:23.300Z,4.75
2017-03-11T08:19:23.833Z,4.78
2017-03-11T08:20:24.366Z,4.81
2017-03-11T08:21:24.899Z,4.88
2017-03-11T08:22:25.441Z,4.99
2017-03-11T08:23:25.972Z,5.11
2017-03-11T08:24:26.499Z,5.25
2017-03-11T08:25:27.030Z,5.38
2017-03-11T08:26:27.561Z,5.45
2017-03-11T08:27:28.094Z,5.52
2017-03-11T08:28:28.628Z,5.62
2017-03-11T08:29:29.156Z,5.68
2017-03-11T08:30:29.692Z,5.75
2017-03-11T08:31:30.224Z,5.73
2017-03-11T08:32:30.760Z,5.62
2017-03-11T08:33:31.286Z,5.64
2017-03-11T08:34:31.818Z,5.71
2017-03-11T08:35:32.345Z,5.75
2017-03-11T08:36:32.877Z,5.78
2017-03-11T08:37:33.409Z,5.82
2017-03-11T08:38:33.959Z,5.88
2017-03-11T08:39:34.482Z,5.91
2017-03-11T08:40:35.155Z,5.82
2017-03-11T08:41:35.541Z,5.74
2017-03-11T08:42:36.075Z,5.78
2017-03-11T08:43:36.613Z,5.84
2017-03-11T08:44:37.148Z,5.91
2017-03-11T08:45:37.691Z,5.93
2017-03-11T08:46:38.226Z,5.89
2017-03-11T08:47:38.754Z,5.84
2017-03-11T08:48:39.289Z,5.84
2017-03-11T08:49:39.819Z,5.82
2017-03-11T08:50:40.351Z,5.75
2017-03-11T08:51:40.887Z,5.79
2017-03-11T08:52:41.414Z,5.84
2017-03-11T08:53:41.947Z,5.82
2017-03-11T08:54:42.481Z,5.84
2017-03-11T08:55:43.163Z,5.91
2017-03-11T08:56:43.550Z,5.97
2017-03-11T08:57:44.080Z,6.03
2017-03-11T08:58:44.611Z,6.09
2017-03-11T08:59:45.295Z,6.14
2017-03-11T09:00:45.675Z,6.18
2017-03-11T09:01:46.240Z,6.22
2017-03-11T09:02:46.742Z,6.26
2017-03-11T09:03:47.284Z,6.31
2017-03-11T09:04:47.807Z,6.37
2017-03-11T09:05:48.485Z,6.41
2017-03-11T09:06:48.868Z,6.51
2017-03-11T09:07:49.400Z,6.63
2017-03-11T09:08:49.934Z,6.66
2017-03-11T09:09:50.463Z,6.74
2017-03-11T09:10:50.999Z,6.74
2017-03-11T09:11:51.528Z,6.81
2017-03-11T09:12:52.064Z,6.79
2017-03-11T09:13:52.598Z,6.82
2017-03-11T09:14:53.129Z,6.87
2017-03-11T09:15:53.660Z,6.68
2017-03-11T09:16:54.189Z,6.67
2017-03-11T09:17:54.723Z,6.67
2017-03-11T09:18:55.254Z,6.67
2017-03-11T09:19:55.965Z,6.70
2017-03-11T09:20:56.325Z,6.66
2017-03-11T09:21:56.851Z,6.70
2017-03-11T09:22:57.389Z,6.68
2017-03-11T09:23:57.916Z,6.77
2017-03-11T09:24:58.458Z,6.81
2017-03-11T09:25:58.990Z,6.93
2017-03-11T09:26:59.533Z,7.01
2017-03-11T09:28:00.064Z,7.00
2017-03-11T09:29:00.604Z,7.13
2017-03-11T09:30:01.160Z,7.19
2017-03-11T09:31:01.667Z,7.30
2017-03-11T09:32:02.222Z,7.40
2017-03-11T09:33:02.730Z,7.46
2017-03-11T09:34:03.255Z,7.52
2017-03-11T09:35:03.791Z,7.67
2017-03-11T09:36:04.473Z,7.71
2017-03-11T09:37:04.862Z,7.60
2017-03-11T09:38:05.538Z,7.63
2017-03-11T09:39:05.926Z,7.53
2017-03-11T09:40:06.457Z,7.51
2017-03-11T09:41:06.991Z,7.67
2017-03-11T09:42:07.522Z,7.85
2017-03-11T09:43:08.052Z,7.87
2017-03-11T09:44:08.735Z,7.92
2017-03-11T09:45:09.122Z,8.06
2017-03-11T09:46:09.650Z,8.17
2017-03-11T09:47:10.181Z,8.12
2017-03-11T09:48:10.711Z,8.15
2017-03-11T09:49:11.248Z,8.09
2017-03-11T09:50:11.780Z,7.93
2017-03-11T09:51:12.307Z,7.78
2017-03-11T09:52:12.874Z,7.78
2017-03-11T09:53:13.375Z,7.76
2017-03-11T09:54:13.906Z,7.81
2017-03-11T09:55:14.435Z,7.79
2017-03-11T09:56:14.977Z,7.81
2017-03-11T09:57:15.502Z,7.85
2017-03-11T09:58:16.042Z,7.95
2017-03-11T09:59:16.563Z,7.99
2017-03-11T10:00:17.092Z,7.92
2017-03-11T10:01:17.627Z,7.98
2017-03-11T10:02:18.156Z,8.05
2017-03-11T10:03:18.695Z,8.16
2017-03-11T10:04:19.225Z,8.30
2017-03-11T10:05:19.760Z,8.37
2017-03-11T10:06:20.293Z,8.45
2017-03-11T10:07:20.824Z,8.45
2017-03-11T10:08:21.361Z,8.47
2017-03-11T10:09:21.901Z,8.51
2017-03-11T10:10:22.430Z,8.35
2017-03-11T10:11:22.966Z,8.22
2017-03-11T10:12:23.496Z,8.33
2017-03-11T10:13:24.031Z,8.37
2017-03-11T10:14:24.565Z,8.35
2017-03-11T10:15:25.095Z,8.31
2017-03-11T10:16:25.627Z,8.34
2017-03-11T10:17:26.157Z,8.38
2017-03-11T10:18:26.693Z,8.37
2017-03-11T10:19:27.218Z,8.46
2017-03-11T10:20:27.749Z,8.53
2017-03-11T10:21:28.285Z,8.58
2017-03-11T10:22:28.816Z,8.60
2017-03-11T10:23:29.352Z,8.68
2017-03-11T10:24:29.886Z,8.69
2017-03-11T10:25:30.414Z,8.64
2017-03-11T10:26:30.961Z,8.61
2017-03-11T10:27:31.479Z,8.72
2017-03-11T10:28:32.008Z,8.71
2017-03-11T10:29:32.538Z,8.58
2017-03-11T10:30:33.070Z,8.60
2017-03-11T10:31:33.807Z,8.62
2017-03-11T10:32:34.135Z,8.68
2017-03-11T10:33:34.668Z,8.80
2017-03-11T10:34:35.194Z,8.86
2017-03-11T10:35:35.727Z,9.00
2017-03-11T10:36:36.255Z,9.22
2017-03-11T10:37:36.789Z,9.27
2017-03-11T10:38:37.331Z,9.44
2017-03-11T10:39:38.021Z,9.34
2017-03-11T10:40:38.533Z,9.27
2017-03-11T10:41:38.918Z,9.39
2017-03-11T10:42:39.449Z,9.50
2017-03-11T10:43:39.981Z,9.62
2017-03-11T10:44:40.515Z,9.95
2017-03-11T10:45:41.050Z,10.20
2017-03-11T10:46:41.582Z,10.52
2017-03-11T10:47:42.121Z,10.81
2017-03-11T10:48:42.658Z,10.74
2017-03-11T10:49:43.192Z,10.71
2017-03-11T10:50:43.731Z,10.91
2017-03-11T10:51:44.257Z,10.98
2017-03-11T10:52:44.789Z,11.14
2017-03-11T10:53:45.325Z,10.74
2017-03-11T10:54:45.856Z,10.86
2017-03-11T10:55:46.391Z,10.90
2017-03-11T10:56:46.920Z,10.80
2017-03-11T10:57:47.451Z,10.93
2017-03-11T10:58:47.987Z,10.97
2017-03-11T10:59:48.515Z,10.93
2017-03-11T11:00:49.046Z,10.87
2017-03-11T11:01:49.576Z,10.95
2017-03-11T11:02:50.112Z,11.07
2017-03-11T11:03:50.646Z,11.29
2017-03-11T11:04:51.170Z,11.38
2017-03-11T11:05:51.708Z,11.61
2017-03-11T11:06:52.238Z,11.83
2017-03-11T11:07:52.771Z,11.54
2017-03-11T11:08:53.306Z,11.43
2017-03-11T11:09:53.836Z,11.68
2017-03-11T11:10:54.364Z,11.50
2017-03-11T11:11:54.900Z,11.36
2017-03-11T11:12:55.431Z,11.16
2017-03-11T11:13:55.966Z,11.11
2017-03-11T11:14:56.492Z,11.16
2017-03-11T11:15:57.030Z,11.21
2017-03-11T11:16:57.561Z,11.11
2017-03-11T11:17:58.098Z,11.11
2017-03-11T11:18:58.800Z,11.21
2017-03-11T11:19:59.152Z,11.38
2017-03-11T11:20:59.695Z,11.50
2017-03-11T11:22:00.219Z,11.43
2017-03-11T11:23:00.751Z,11.25
2017-03-11T11:24:01.287Z,11.18
2017-03-11T11:25:01.816Z,11.31
2017-03-11T11:26:02.346Z,11.28
2017-03-11T11:27:02.886Z,11.17
2017-03-11T11:28:03.414Z,11.14
2017-03-11T11:29:03.949Z,11.28
2017-03-11T11:30:04.485Z,11.38
2017-03-11T11:31:05.023Z,11.16
2017-03-11T11:32:05.561Z,11.21
2017-03-11T11:33:06.095Z,11.25
2017-03-11T11:34:06.634Z,11.31
2017-03-11T11:35:07.169Z,11.67
2017-03-11T11:36:07.699Z,11.75
2017-03-11T11:37:08.375Z,11.97
2017-03-11T11:38:08.763Z,12.01
2017-03-11T11:39:09.294Z,11.98
2017-03-11T11:40:09.821Z,11.95
2017-03-11T11:41:10.354Z,11.83
2017-03-11T11:42:10.884Z,11.84
2017-03-11T11:43:11.416Z,11.68
2017-03-11T11:44:11.948Z,11.47
2017-03-11T11:45:12.479Z,11.46
2017-03-11T11:46:13.012Z,11.32
2017-03-11T11:47:13.548Z,11.35
2017-03-11T11:48:14.071Z,11.45
2017-03-11T11:49:14.608Z,11.68
2017-03-11T11:50:15.146Z,11.79
2017-03-11T11:51:15.674Z,11.79
2017-03-11T11:52:16.205Z,11.78
2017-03-11T11:53:16.739Z,11.76
2017-03-11T11:54:17.276Z,11.76
2017-03-11T11:55:17.806Z,11.83
2017-03-11T11:56:18.341Z,11.72
2017-03-11T11:57:19.918Z,11.82
2017-03-11T11:58:19.402Z,11.82
2017-03-11T11:59:19.931Z,11.95
2017-03-11T12:00:20.465Z,12.09
2017-03-11T12:01:21.024Z,12.14
2017-03-11T12:02:21.527Z,12.22
2017-03-11T12:03:22.056Z,12.25
2017-03-11T12:04:22.588Z,12.31
2017-03-11T12:05:23.124Z,12.24
2017-03-11T12:06:23.652Z,12.01
2017-03-11T12:07:24.184Z,11.92
2017-03-11T12:08:24.719Z,12.02
2017-03-11T12:09:25.250Z,12.12
2017-03-11T12:10:25.784Z,12.42
2017-03-11T12:11:26.316Z,12.43
2017-03-11T12:12:26.856Z,12.50
2017-03-11T12:13:27.402Z,12.58
2017-03-11T12:14:27.928Z,12.53
2017-03-11T12:15:28.459Z,12.69
2017-03-11T12:16:28.998Z,12.46
2017-03-11T12:17:29.525Z,12.47
2017-03-11T12:18:30.063Z,12.42
2017-03-11T12:19:30.624Z,12.42
2017-03-11T12:20:31.128Z,12.44
2017-03-11T12:21:31.666Z,12.64
2017-03-11T12:22:32.196Z,12.75
2017-03-11T12:23:32.727Z,12.82
2017-03-11T12:24:33.259Z,13.00
2017-03-11T12:25:33.942Z,12.87
2017-03-11T12:26:34.321Z,12.83
2017-03-11T12:27:34.855Z,12.71
2017-03-11T12:28:35.394Z,12.60
2017-03-11T12:29:35.915Z,12.77
2017-03-11T12:30:36.453Z,12.99
2017-03-11T12:31:37.138Z,12.99
2017-03-11T12:32:37.516Z,13.13
2017-03-11T12:33:38.054Z,13.27
2017-03-11T12:34:38.578Z,13.38
2017-03-11T12:35:39.111Z,13.27
2017-03-11T12:36:39.644Z,13.18
2017-03-11T12:37:40.325Z,13.27
2017-03-11T12:38:40.709Z,13.20
2017-03-11T12:39:41.239Z,12.96
2017-03-11T12:40:41.775Z,13.05
2017-03-11T12:41:42.308Z,13.17
2017-03-11T12:42:42.838Z,13.31
2017-03-11T12:43:43.368Z,13.35
2017-03-11T12:44:43.900Z,13.45
2017-03-11T12:45:44.433Z,13.21
2017-03-11T12:46:44.968Z,13.00
2017-03-11T12:47:45.496Z,12.95
2017-03-11T12:48:46.037Z,13.03
2017-03-11T12:49:46.556Z,13.24
2017-03-11T12:50:47.092Z,13.34
2017-03-11T12:51:47.624Z,13.47
2017-03-11T12:52:48.163Z,13.59
2017-03-11T12:53:48.697Z,13.43
2017-03-11T12:54:49.234Z,13.17
2017-03-11T12:55:49.766Z,13.28
2017-03-11T12:56:50.445Z,13.59
2017-03-11T12:57:50.828Z,13.86
2017-03-11T12:58:51.362Z,13.88
2017-03-11T12:59:51.889Z,13.62
2017-03-11T13:00:52.424Z,13.73
2017-03-11T13:01:52.961Z,13.73
2017-03-11T13:02:53.491Z,13.45
2017-03-11T13:03:54.030Z,13.61
2017-03-11T13:04:54.556Z,13.70
2017-03-11T13:05:55.234Z,13.61
2017-03-11T13:06:55.622Z,13.68
2017-03-11T13:07:56.150Z,13.56
2017-03-11T13:08:56.686Z,13.59
2017-03-11T13:09:57.213Z,13.70
2017-03-11T13:10:57.749Z,13.84
2017-03-11T13:11:58.282Z,13.95
2017-03-11T13:12:58.814Z,14.07
2017-03-11T13:13:59.348Z,14.03
2017-03-11T13:14:59.882Z,14.07
2017-03-11T13:16:00.410Z,14.42
2017-03-11T13:17:00.947Z,14.33
2017-03-11T13:18:01.473Z,14.04
2017-03-11T13:19:02.158Z,13.95
2017-03-11T13:20:02.541Z,14.10